Bucyrus, Ohio
Current Conditions -  °F | °C
As of 8:12 AM on Saturday 22 Nov 2014 (Local Time) from KMNN Reporting Station
Freezing Rain Freezing Rain  
Wind Chill: 22°   Ceiling: 3600
Heat Index: 33°   Visibility: 4mi
Dew Point: 29°   Wind: 17mph
Humidity: 85%   Direction: 200°SSW
Pressure: 30.23"   Gusts: 24mph
Location:  40.81°N, 82.98°W
Report Text: KMNN 221312Z AUTO 20015G21KT 4SM -FZRA BR SCT027 BKN036 OVC060 01/M02 A3023 RMK AO2 P0000 I1000 T00061017 TSNO
Loading
Personal Weather Stations






























Interactive Weather Map New forecast layout! Learn more

10-Day Weather Forecast

Advertisements
Track Severe Weather on mobile